sensor_id;sensor_type;location;lat;lon;timestamp;pressure;altitude;pressure_sealevel;temperature;humidity
44926;BME280;30662;51.210;7.656;2023-05-08T00:00:27;152193.50;;;13.60;100.00
44926;BME280;30662;51.210;7.656;2023-05-08T00:02:52;152190.97;;;13.59;100.00
44926;BME280;30662;51.210;7.656;2023-05-08T00:05:19;152207.47;;;13.65;100.00
44926;BME280;30662;51.210;7.656;2023-05-08T00:07:44;152193.50;;;13.60;100.00
44926;BME280;30662;51.210;7.656;2023-05-08T00:10:11;152217.66;;;13.69;100.00
44926;BME280;30662;51.210;7.656;2023-05-08T00:12:37;152188.44;;;13.58;100.00
44926;BME280;30662;51.210;7.656;2023-05-08T00:15:04;152192.25;;;13.59;100.00
44926;BME280;30662;51.210;7.656;2023-05-08T00:17:30;152192.25;;;13.59;100.00
44926;BME280;30662;51.210;7.656;2023-05-08T00:19:56;152174.47;;;13.52;100.00
44926;BME280;30662;51.210;7.656;2023-05-08T00:22:22;152202.41;;;13.63;100.00
44926;BME280;30662;51.210;7.656;2023-05-08T00:24:48;152192.25;;;13.59;100.00
44926;BME280;30662;51.210;7.656;2023-05-08T00:27:14;152182.13;;;13.55;100.00
44926;BME280;30662;51.210;7.656;2023-05-08T00:29:40;152182.13;;;13.55;100.00
44926;BME280;30662;51.210;7.656;2023-05-08T00:32:06;152142.75;;;13.39;100.00
44926;BME280;30662;51.210;7.656;2023-05-08T00:34:32;152173.22;;;13.51;100.00
44926;BME280;30662;51.210;7.656;2023-05-08T00:36:58;152188.44;;;13.58;100.00
44926;BME280;30662;51.210;7.656;2023-05-08T00:39:24;152160.50;;;13.46;100.00
44926;BME280;30662;51.210;7.656;2023-05-08T00:41:50;152141.50;;;13.39;100.00
44926;BME280;30662;51.210;7.656;2023-05-08T00:44:16;152156.72;;;13.45;100.00
44926;BME280;30662;51.210;7.656;2023-05-08T00:46:43;152159.25;;;13.46;100.00
44926;BME280;30662;51.210;7.656;2023-05-08T00:49:10;152160.50;;;13.46;100.00
44926;BME280;30662;51.210;7.656;2023-05-08T00:51:42;152146.59;;;13.41;100.00
44926;BME280;30662;51.210;7.656;2023-05-08T00:54:09;152132.63;;;13.35;100.00
44926;BME280;30662;51.210;7.656;2023-05-08T00:56:37;152146.59;;;13.41;100.00
44926;BME280;30662;51.210;7.656;2023-05-08T00:59:08;152140.22;;;13.38;100.00
44926;BME280;30662;51.210;7.656;2023-05-08T01:01:38;152126.31;;;13.33;100.00
44926;BME280;30662;51.210;7.656;2023-05-08T01:04:05;152131.38;;;13.35;100.00
44926;BME280;30662;51.210;7.656;2023-05-08T01:06:32;152141.50;;;13.39;100.00
44926;BME280;30662;51.210;7.656;2023-05-08T01:09:04;152154.19;;;13.44;100.00
44926;BME280;30662;51.210;7.656;2023-05-08T01:11:35;152107.22;;;13.25;100.00
44926;BME280;30662;51.210;7.656;2023-05-08T01:14:44;152099.66;;;13.22;100.00
44926;BME280;30662;51.210;7.656;2023-05-08T01:19:56;152109.81;;;13.26;100.00
44926;BME280;30662;51.210;7.656;2023-05-08T01:28:44;152052.66;;;13.03;100.00
44926;BME280;30662;51.210;7.656;2023-05-08T01:34:20;152003.22;;;12.83;100.00
44926;BME280;30662;51.210;7.656;2023-05-08T01:37:10;151980.38;;;12.74;100.00
44926;BME280;30662;51.210;7.656;2023-05-08T01:39:49;151995.59;;;12.80;100.00
44926;BME280;30662;51.210;7.656;2023-05-08T01:42:25;151976.59;;;12.73;100.00
44926;BME280;30662;51.210;7.656;2023-05-08T01:45:13;151971.53;;;12.70;100.00
44926;BME280;30662;51.210;7.656;2023-05-08T01:47:41;151994.34;;;12.80;100.00
44926;BME280;30662;51.210;7.656;2023-05-08T01:50:17;152017.16;;;12.89;100.00
44926;BME280;30662;51.210;7.656;2023-05-08T01:53:06;152004.50;;;12.84;100.00
44926;BME280;30662;51.210;7.656;2023-05-08T01:55:35;152031.09;;;12.94;100.00
44926;BME280;30662;51.210;7.656;2023-05-08T01:58:06;152034.91;;;12.96;100.00
44926;BME280;30662;51.210;7.656;2023-05-08T02:00:32;152047.59;;;13.01;100.00
44926;BME280;30662;51.210;7.656;2023-05-08T02:02:59;152024.78;;;12.92;100.00
44926;BME280;30662;51.210;7.656;2023-05-08T02:05:26;152047.59;;;13.01;100.00
44926;BME280;30662;51.210;7.656;2023-05-08T02:07:53;152051.38;;;13.03;100.00
44926;BME280;30662;51.210;7.656;2023-05-08T02:10:22;152012.09;;;12.87;100.00
44926;BME280;30662;51.210;7.656;2023-05-08T02:12:50;151965.19;;;12.68;100.00
44926;BME280;30662;51.210;7.656;2023-05-08T02:15:17;151955.03;;;12.64;100.00
44926;BME280;30662;51.210;7.656;2023-05-08T02:17:45;151962.63;;;12.67;100.00
44926;BME280;30662;51.210;7.656;2023-05-08T02:20:13;151942.34;;;12.59;100.00
44926;BME280;30662;51.210;7.656;2023-05-08T02:22:42;151905.59;;;12.44;100.00
44926;BME280;30662;51.210;7.656;2023-05-08T02:25:11;151909.38;;;12.46;100.00
44926;BME280;30662;51.210;7.656;2023-05-08T02:27:42;151924.59;;;12.52;100.00
44926;BME280;30662;51.210;7.656;2023-05-08T02:30:13;151891.69;;;12.38;100.00
44926;BME280;30662;51.210;7.656;2023-05-08T02:32:41;151922.06;;;12.51;100.00
44926;BME280;30662;51.210;7.656;2023-05-08T02:35:11;151930.97;;;12.54;100.00
44926;BME280;30662;51.210;7.656;2023-05-08T02:37:40;151936.03;;;12.56;100.00
44926;BME280;30662;51.210;7.656;2023-05-08T02:40:08;151908.13;;;12.45;100.00
44926;BME280;30662;51.210;7.656;2023-05-08T02:42:36;151894.22;;;12.39;100.00
44926;BME280;30662;51.210;7.656;2023-05-08T02:45:03;151891.69;;;12.38;100.00
44926;BME280;30662;51.210;7.656;2023-05-08T02:47:42;151867.56;;;12.29;100.00
44926;BME280;30662;51.210;7.656;2023-05-08T02:50:17;151871.34;;;12.30;100.00
44926;BME280;30662;51.210;7.656;2023-05-08T02:52:48;151867.56;;;12.29;100.00
44926;BME280;30662;51.210;7.656;2023-05-08T02:58:04;151843.50;;;12.19;100.00
44926;BME280;30662;51.210;7.656;2023-05-08T03:00:41;151843.50;;;12.19;100.00
44926;BME280;30662;51.210;7.656;2023-05-08T03:03:21;151823.22;;;12.11;100.00
44926;BME280;30662;51.210;7.656;2023-05-08T03:05:56;151835.88;;;12.16;100.00
44926;BME280;30662;51.210;7.656;2023-05-08T03:08:32;151814.31;;;12.07;100.00
44926;BME280;30662;51.210;7.656;2023-05-08T03:11:02;151828.28;;;12.13;100.00
44926;BME280;30662;51.210;7.656;2023-05-08T03:13:31;151852.34;;;12.23;100.00
44926;BME280;30662;51.210;7.656;2023-05-08T03:15:59;151861.25;;;12.26;100.00
44926;BME280;30662;51.210;7.656;2023-05-08T03:18:40;151849.81;;;12.22;100.00
44926;BME280;30662;51.210;7.656;2023-05-08T03:21:08;151853.59;;;12.23;100.00
44926;BME280;30662;51.210;7.656;2023-05-08T03:23:37;151867.56;;;12.29;100.00
44926;BME280;30662;51.210;7.656;2023-05-08T03:26:04;151865.03;;;12.28;100.00
44926;BME280;30662;51.210;7.656;2023-05-08T03:28:31;151880.25;;;12.34;100.00
44926;BME280;30662;51.210;7.656;2023-05-08T03:30:58;151838.44;;;12.17;100.00
44926;BME280;30662;51.210;7.656;2023-05-08T03:33:25;151819.38;;;12.09;100.00
44926;BME280;30662;51.210;7.656;2023-05-08T03:35:53;151861.25;;;12.26;100.00
44926;BME280;30662;51.210;7.656;2023-05-08T03:38:20;151830.81;;;12.14;100.00
44926;BME280;30662;51.210;7.656;2023-05-08T03:40:49;151829.53;;;12.13;100.00
44926;BME280;30662;51.210;7.656;2023-05-08T03:43:15;151825.75;;;12.12;100.00
44926;BME280;30662;51.210;7.656;2023-05-08T03:45:43;151824.50;;;12.11;100.00
44926;BME280;30662;51.210;7.656;2023-05-08T03:48:09;151834.59;;;12.15;100.00
44926;BME280;30662;51.210;7.656;2023-05-08T03:50:36;151861.25;;;12.26;100.00
44926;BME280;30662;51.210;7.656;2023-05-08T03:53:02;151814.31;;;12.07;100.00
44926;BME280;30662;51.210;7.656;2023-05-08T03:55:31;151797.84;;;12.01;100.00
44926;BME280;30662;51.210;7.656;2023-05-08T03:58:16;151795.31;;;12.00;100.00
44926;BME280;30662;51.210;7.656;2023-05-08T04:01:12;151780.09;;;11.94;100.00
44926;BME280;30662;51.210;7.656;2023-05-08T04:04:00;151819.38;;;12.09;100.00
44926;BME280;30662;51.210;7.656;2023-05-08T04:06:30;151801.69;;;12.02;100.00
44926;BME280;30662;51.210;7.656;2023-05-08T04:09:30;151799.13;;;12.01;100.00
44926;BME280;30662;51.210;7.656;2023-05-08T04:14:42;151762.38;;;11.86;100.00
44926;BME280;30662;51.210;7.656;2023-05-08T04:17:13;151721.78;;;11.70;100.00
44926;BME280;30662;51.210;7.656;2023-05-08T04:19:45;151730.69;;;11.74;100.00
44926;BME280;30662;51.210;7.656;2023-05-08T04:22:11;151768.72;;;11.89;100.00
44926;BME280;30662;51.210;7.656;2023-05-08T04:24:43;151782.63;;;11.95;100.00
44926;BME280;30662;51.210;7.656;2023-05-08T04:27:11;151776.31;;;11.92;100.00
44926;BME280;30662;51.210;7.656;2023-05-08T04:29:38;151789.00;;;11.97;100.00
44926;BME280;30662;51.210;7.656;2023-05-08T04:32:04;151791.53;;;11.98;100.00
44926;BME280;30662;51.210;7.656;2023-05-08T04:34:31;151795.31;;;12.00;100.00
44926;BME280;30662;51.210;7.656;2023-05-08T04:36:57;151813.06;;;12.07;100.00
44926;BME280;30662;51.210;7.656;2023-05-08T04:39:23;151825.75;;;12.12;100.00
44926;BME280;30662;51.210;7.656;2023-05-08T04:41:49;151828.28;;;12.13;100.00
44926;BME280;30662;51.210;7.656;2023-05-08T04:44:17;151818.13;;;12.09;100.00
44926;BME280;30662;51.210;7.656;2023-05-08T04:46:43;151848.56;;;12.21;100.00
44926;BME280;30662;51.210;7.656;2023-05-08T04:49:09;151840.97;;;12.18;100.00
44926;BME280;30662;51.210;7.656;2023-05-08T04:51:34;151833.34;;;12.15;100.00
44926;BME280;30662;51.210;7.656;2023-05-08T04:54:00;151840.97;;;12.18;100.00
44926;BME280;30662;51.210;7.656;2023-05-08T04:56:26;151834.59;;;12.15;100.00
44926;BME280;30662;51.210;7.656;2023-05-08T04:58:52;151828.28;;;12.13;100.00
44926;BME280;30662;51.210;7.656;2023-05-08T05:01:18;151789.00;;;11.97;100.00
44926;BME280;30662;51.210;7.656;2023-05-08T05:03:44;151799.13;;;12.01;100.00
44926;BME280;30662;51.210;7.656;2023-05-08T05:06:10;151748.47;;;11.81;100.00
44926;BME280;30662;51.210;7.656;2023-05-08T05:08:36;151768.72;;;11.89;100.00
44926;BME280;30662;51.210;7.656;2023-05-08T05:11:02;151720.53;;;11.70;100.00
44926;BME280;30662;51.210;7.656;2023-05-08T05:13:28;151733.22;;;11.75;100.00
44926;BME280;30662;51.210;7.656;2023-05-08T05:15:54;151710.38;;;11.66;100.00
44926;BME280;30662;51.210;7.656;2023-05-08T05:18:21;151697.72;;;11.60;100.00
44926;BME280;30662;51.210;7.656;2023-05-08T05:20:48;151716.72;;;11.68;100.00
44926;BME280;30662;51.210;7.656;2023-05-08T05:23:14;151752.25;;;11.82;100.00
44926;BME280;30662;51.210;7.656;2023-05-08T05:25:40;151763.63;;;11.87;100.00
44926;BME280;30662;51.210;7.656;2023-05-08T05:28:06;151792.78;;;11.99;100.00
44926;BME280;30662;51.210;7.656;2023-05-08T05:30:32;151790.25;;;11.98;100.00
44926;BME280;30662;51.210;7.656;2023-05-08T05:32:58;151818.13;;;12.09;100.00
44926;BME280;30662;51.210;7.656;2023-05-08T05:35:24;151801.69;;;12.02;100.00
44926;BME280;30662;51.210;7.656;2023-05-08T05:37:51;151787.75;;;11.97;100.00
44926;BME280;30662;51.210;7.656;2023-05-08T05:40:17;151819.38;;;12.09;100.00
44926;BME280;30662;51.210;7.656;2023-05-08T05:42:47;151813.06;;;12.07;100.00
44926;BME280;30662;51.210;7.656;2023-05-08T05:45:14;151853.59;;;12.23;100.00
44926;BME280;30662;51.210;7.656;2023-05-08T05:47:44;151856.19;;;12.24;100.00
44926;BME280;30662;51.210;7.656;2023-05-08T05:50:11;151854.88;;;12.24;100.00
44926;BME280;30662;51.210;7.656;2023-05-08T05:52:37;151892.94;;;12.39;100.00
44926;BME280;30662;51.210;7.656;2023-05-08T05:55:03;151853.59;;;12.23;100.00
44926;BME280;30662;51.210;7.656;2023-05-08T05:57:29;151886.56;;;12.36;100.00
44926;BME280;30662;51.210;7.656;2023-05-08T05:59:55;151886.56;;;12.36;100.00
44926;BME280;30662;51.210;7.656;2023-05-08T06:02:21;151905.59;;;12.44;100.00
44926;BME280;30662;51.210;7.656;2023-05-08T06:04:47;151865.03;;;12.28;100.00
44926;BME280;30662;51.210;7.656;2023-05-08T06:07:14;151866.31;;;12.28;100.00
44926;BME280;30662;51.210;7.656;2023-05-08T06:09:40;151915.75;;;12.48;100.00
44926;BME280;30662;51.210;7.656;2023-05-08T06:12:06;151933.50;;;12.55;100.00
44926;BME280;30662;51.210;7.656;2023-05-08T06:14:33;151924.59;;;12.52;100.00
44926;BME280;30662;51.210;7.656;2023-05-08T06:16:58;151939.81;;;12.58;100.00
44926;BME280;30662;51.210;7.656;2023-05-08T06:19:24;151929.69;;;12.54;100.00
44926;BME280;30662;51.210;7.656;2023-05-08T06:21:50;151894.22;;;12.39;100.00
44926;BME280;30662;51.210;7.656;2023-05-08T06:24:16;151933.50;;;12.55;100.00
44926;BME280;30662;51.210;7.656;2023-05-08T06:26:42;151929.69;;;12.54;100.00
44926;BME280;30662;51.210;7.656;2023-05-08T06:29:08;151894.22;;;12.39;100.00
44926;BME280;30662;51.210;7.656;2023-05-08T06:31:34;151928.44;;;12.53;100.00
44926;BME280;30662;51.210;7.656;2023-05-08T06:34:00;151891.69;;;12.38;100.00
44926;BME280;30662;51.210;7.656;2023-05-08T06:36:25;151844.75;;;12.20;100.00
44926;BME280;30662;51.210;7.656;2023-05-08T06:38:51;151843.50;;;12.19;100.00
44926;BME280;30662;51.210;7.656;2023-05-08T06:41:17;151886.56;;;12.36;100.00
44926;BME280;30662;51.210;7.656;2023-05-08T06:43:43;151910.69;;;12.46;100.00
44926;BME280;30662;51.210;7.656;2023-05-08T06:46:11;151882.78;;;12.35;100.00
44926;BME280;30662;51.210;7.656;2023-05-08T06:48:37;151923.34;;;12.51;100.00
44926;BME280;30662;51.210;7.656;2023-05-08T06:51:03;151951.25;;;12.62;100.00
44926;BME280;30662;51.210;7.656;2023-05-08T06:53:29;151944.88;;;12.60;100.00
44926;BME280;30662;51.210;7.656;2023-05-08T06:55:55;151979.13;;;12.74;100.00
44926;BME280;30662;51.210;7.656;2023-05-08T06:58:24;151998.13;;;12.81;100.00
44926;BME280;30662;51.210;7.656;2023-05-08T07:00:50;151999.38;;;12.82;100.00
44926;BME280;30662;51.210;7.656;2023-05-08T07:03:16;151994.34;;;12.80;100.00
44926;BME280;30662;51.210;7.656;2023-05-08T07:05:42;151989.28;;;12.78;100.00
44926;BME280;30662;51.210;7.656;2023-05-08T07:08:07;151971.53;;;12.70;100.00
44926;BME280;30662;51.210;7.656;2023-05-08T07:10:33;151965.19;;;12.68;100.00
44926;BME280;30662;51.210;7.656;2023-05-08T07:13:00;151970.25;;;12.70;100.00
44926;BME280;30662;51.210;7.656;2023-05-08T07:15:26;152031.09;;;12.94;100.00
44926;BME280;30662;51.210;7.656;2023-05-08T07:17:52;152056.50;;;13.05;100.00
44926;BME280;30662;51.210;7.656;2023-05-08T07:20:18;152064.09;;;13.08;100.00
44926;BME280;30662;51.210;7.656;2023-05-08T07:22:44;152060.28;;;13.06;100.00
44926;BME280;30662;51.210;7.656;2023-05-08T07:25:11;152070.41;;;13.10;100.00
44926;BME280;30662;51.210;7.656;2023-05-08T07:27:37;152019.72;;;12.90;100.00
44926;BME280;30662;51.210;7.656;2023-05-08T07:30:03;152033.63;;;12.95;100.00
44926;BME280;30662;51.210;7.656;2023-05-08T07:32:30;152066.63;;;13.09;100.00
44926;BME280;30662;51.210;7.656;2023-05-08T07:34:56;152072.97;;;13.11;100.00
44926;BME280;30662;51.210;7.656;2023-05-08T07:37:22;152084.38;;;13.16;100.00
44926;BME280;30662;51.210;7.656;2023-05-08T07:39:48;152099.66;;;13.22;100.00
44926;BME280;30662;51.210;7.656;2023-05-08T07:42:14;152074.25;;;13.12;100.00
44926;BME280;30662;51.210;7.656;2023-05-08T07:44:40;152084.38;;;13.16;100.00
44926;BME280;30662;51.210;7.656;2023-05-08T07:47:18;152127.56;;;13.33;100.00
44926;BME280;30662;51.210;7.656;2023-05-08T07:49:44;152113.63;;;13.28;100.00
44926;BME280;30662;51.210;7.656;2023-05-08T07:52:10;152102.19;;;13.23;100.00
44926;BME280;30662;51.210;7.656;2023-05-08T07:54:36;152142.75;;;13.39;100.00
44926;BME280;30662;51.210;7.656;2023-05-08T07:57:02;152154.19;;;13.44;100.00
44926;BME280;30662;51.210;7.656;2023-05-08T07:59:27;152119.94;;;13.30;100.00
44926;BME280;30662;51.210;7.656;2023-05-08T08:01:53;152138.97;;;13.38;100.00
44926;BME280;30662;51.210;7.656;2023-05-08T08:04:19;152104.72;;;13.24;100.00
44926;BME280;30662;51.210;7.656;2023-05-08T08:06:45;152117.41;;;13.29;100.00
44926;BME280;30662;51.210;7.656;2023-05-08T08:09:11;152092.00;;;13.19;100.00
44926;BME280;30662;51.210;7.656;2023-05-08T08:11:37;152041.28;;;12.98;100.00
44926;BME280;30662;51.210;7.656;2023-05-08T08:14:03;152056.50;;;13.05;100.00
44926;BME280;30662;51.210;7.656;2023-05-08T08:16:29;152041.28;;;12.98;100.00
44926;BME280;30662;51.210;7.656;2023-05-08T08:18:54;151998.13;;;12.81;100.00
44926;BME280;30662;51.210;7.656;2023-05-08T08:21:20;152059.03;;;13.06;100.00
44926;BME280;30662;51.210;7.656;2023-05-08T08:23:46;152052.66;;;13.03;100.00
44926;BME280;30662;51.210;7.656;2023-05-08T08:26:12;152043.81;;;13.00;100.00
44926;BME280;30662;51.210;7.656;2023-05-08T08:28:38;152064.09;;;13.08;100.00
44926;BME280;30662;51.210;7.656;2023-05-08T08:31:04;152053.97;;;13.04;100.00
44926;BME280;30662;51.210;7.656;2023-05-08T08:33:30;152043.81;;;13.00;100.00
44926;BME280;30662;51.210;7.656;2023-05-08T08:35:56;152074.25;;;13.12;100.00
44926;BME280;30662;51.210;7.656;2023-05-08T08:38:22;152070.41;;;13.10;100.00
44926;BME280;30662;51.210;7.656;2023-05-08T08:40:48;152061.56;;;13.07;100.00
44926;BME280;30662;51.210;7.656;2023-05-08T08:43:14;152066.63;;;13.09;100.00
44926;BME280;30662;51.210;7.656;2023-05-08T08:45:40;152055.22;;;13.04;100.00
44926;BME280;30662;51.210;7.656;2023-05-08T08:48:09;152060.28;;;13.06;100.00
44926;BME280;30662;51.210;7.656;2023-05-08T08:50:41;152033.63;;;12.95;100.00
44926;BME280;30662;51.210;7.656;2023-05-08T08:53:21;152043.81;;;13.00;100.00
44926;BME280;30662;51.210;7.656;2023-05-08T08:55:49;152033.63;;;12.95;100.00
44926;BME280;30662;51.210;7.656;2023-05-08T08:58:26;152022.25;;;12.91;100.00
44926;BME280;30662;51.210;7.656;2023-05-08T09:00:56;152048.84;;;13.02;100.00
44926;BME280;30662;51.210;7.656;2023-05-08T09:03:24;152059.03;;;13.06;100.00
44926;BME280;30662;51.210;7.656;2023-05-08T09:05:50;152037.47;;;12.97;100.00
44926;BME280;30662;51.210;7.656;2023-05-08T09:08:17;152027.31;;;12.93;100.00
44926;BME280;30662;51.210;7.656;2023-05-08T09:10:43;152065.34;;;13.08;100.00
44926;BME280;30662;51.210;7.656;2023-05-08T09:13:09;152008.28;;;12.85;100.00
44926;BME280;30662;51.210;7.656;2023-05-08T09:15:35;151990.53;;;12.78;100.00
44926;BME280;30662;51.210;7.656;2023-05-08T09:18:01;152022.25;;;12.91;100.00
44926;BME280;30662;51.210;7.656;2023-05-08T09:20:27;152046.31;;;13.01;100.00
44926;BME280;30662;51.210;7.656;2023-05-08T09:22:54;152014.63;;;12.88;100.00
44926;BME280;30662;51.210;7.656;2023-05-08T09:25:20;152028.56;;;12.93;100.00
44926;BME280;30662;51.210;7.656;2023-05-08T09:27:46;151980.38;;;12.74;100.00
44926;BME280;30662;51.210;7.656;2023-05-08T09:30:12;152026.03;;;12.92;100.00
44926;BME280;30662;51.210;7.656;2023-05-08T09:32:42;152059.03;;;13.06;100.00
44926;BME280;30662;51.210;7.656;2023-05-08T09:35:10;152098.38;;;13.21;100.00
44926;BME280;30662;51.210;7.656;2023-05-08T09:37:38;152125.00;;;13.32;100.00
44926;BME280;30662;51.210;7.656;2023-05-08T09:40:18;152159.25;;;13.46;100.00
44926;BME280;30662;51.210;7.656;2023-05-08T09:42:47;152207.47;;;13.65;100.00
44926;BME280;30662;51.210;7.656;2023-05-08T09:45:28;152145.34;;;13.40;100.00
44926;BME280;30662;51.210;7.656;2023-05-08T09:47:54;152151.66;;;13.43;100.00
44926;BME280;30662;51.210;7.656;2023-05-08T09:50:20;152165.63;;;13.48;100.00
44926;BME280;30662;51.210;7.656;2023-05-08T09:52:47;152255.69;;;13.85;100.00
44926;BME280;30662;51.210;7.656;2023-05-08T09:55:14;152325.50;;;14.13;100.00
44926;BME280;30662;51.210;7.656;2023-05-08T09:57:52;152433.44;;;14.56;100.00
44926;BME280;30662;51.210;7.656;2023-05-08T10:00:19;152446.09;;;14.61;100.00
44926;BME280;30662;51.210;7.656;2023-05-08T10:03:05;152551.50;;;15.03;100.00
44926;BME280;30662;51.210;7.656;2023-05-08T10:05:33;152588.34;;;15.18;100.00
44926;BME280;30662;51.210;7.656;2023-05-08T10:08:22;152639.16;;;15.38;100.00
44926;BME280;30662;51.210;7.656;2023-05-08T10:10:50;152678.50;;;15.54;100.00
44926;BME280;30662;51.210;7.656;2023-05-08T10:13:16;152719.22;;;15.70;100.00
44926;BME280;30662;51.210;7.656;2023-05-08T10:15:43;152757.31;;;15.86;100.00
44926;BME280;30662;51.210;7.656;2023-05-08T10:18:10;152800.56;;;16.03;100.00
44926;BME280;30662;51.210;7.656;2023-05-08T10:20:41;152815.81;;;16.09;100.00
44926;BME280;30662;51.210;7.656;2023-05-08T10:23:10;152817.06;;;16.10;100.00
44926;BME280;30662;51.210;7.656;2023-05-08T10:25:46;152766.22;;;15.89;100.00
44926;BME280;30662;51.210;7.656;2023-05-08T10:30:49;152759.91;;;15.87;100.00
44926;BME280;30662;51.210;7.656;2023-05-08T10:33:19;152725.59;;;15.73;100.00
44926;BME280;30662;51.210;7.656;2023-05-08T10:35:47;152673.44;;;15.52;100.00
44926;BME280;30662;51.210;7.656;2023-05-08T10:38:14;152664.53;;;15.49;100.00
44926;BME280;30662;51.210;7.656;2023-05-08T10:40:41;152616.28;;;15.29;100.00
44926;BME280;30662;51.210;7.656;2023-05-08T10:43:08;152578.19;;;15.14;100.00
44926;BME280;30662;51.210;7.656;2023-05-08T10:45:35;152612.44;;;15.28;100.00
44926;BME280;30662;51.210;7.656;2023-05-08T10:51:05;152611.19;;;15.27;100.00
44926;BME280;30662;51.210;7.656;2023-05-08T10:53:50;152618.81;;;15.30;100.00
44926;BME280;30662;51.210;7.656;2023-05-08T10:56:17;152613.75;;;15.28;100.00
44926;BME280;30662;51.210;7.656;2023-05-08T10:58:43;152594.66;;;15.21;100.00
44926;BME280;30662;51.210;7.656;2023-05-08T11:01:10;152560.41;;;15.07;100.00
44926;BME280;30662;51.210;7.656;2023-05-08T11:03:41;152594.66;;;15.21;100.00
44926;BME280;30662;51.210;7.656;2023-05-08T11:06:08;152650.59;;;15.43;100.00
44926;BME280;30662;51.210;7.656;2023-05-08T11:08:44;152669.66;;;15.51;100.00
44926;BME280;30662;51.210;7.656;2023-05-08T11:11:25;152682.31;;;15.56;100.00
44926;BME280;30662;51.210;7.656;2023-05-08T11:13:59;152686.16;;;15.57;100.00
44926;BME280;30662;51.210;7.656;2023-05-08T11:19:22;152672.19;;;15.52;100.00
44926;BME280;30662;51.210;7.656;2023-05-08T11:22:13;152628.97;;;15.34;100.00
44926;BME280;30662;51.210;7.656;2023-05-08T11:24:53;152651.88;;;15.43;100.00
44926;BME280;30662;51.210;7.656;2023-05-08T11:27:34;152637.88;;;15.38;100.00
44926;BME280;30662;51.210;7.656;2023-05-08T11:35:48;152759.91;;;15.87;100.00
44926;BME280;30662;51.210;7.656;2023-05-08T11:40:59;152780.22;;;15.95;100.00
44926;BME280;30662;51.210;7.656;2023-05-08T11:46:14;152758.63;;;15.86;100.00
44926;BME280;30662;51.210;7.656;2023-05-08T11:48:40;152749.72;;;15.83;100.00
44926;BME280;30662;51.210;7.656;2023-05-08T11:51:08;152750.97;;;15.83;100.00
44926;BME280;30662;51.210;7.656;2023-05-08T11:53:34;152750.97;;;15.83;100.00
44926;BME280;30662;51.210;7.656;2023-05-08T11:56:01;152734.47;;;15.77;100.00
44926;BME280;30662;51.210;7.656;2023-05-08T11:58:28;152720.47;;;15.71;100.00
44926;BME280;30662;51.210;7.656;2023-05-08T12:00:54;152704.00;;;15.64;100.00
44926;BME280;30662;51.210;7.656;2023-05-08T12:03:22;152670.91;;;15.51;100.00
44926;BME280;30662;51.210;7.656;2023-05-08T12:05:50;152663.25;;;15.48;100.00
44926;BME280;30662;51.210;7.656;2023-05-08T12:08:16;152675.97;;;15.53;100.00
44926;BME280;30662;51.210;7.656;2023-05-08T12:13:16;152646.75;;;15.41;100.00
44926;BME280;30662;51.210;7.656;2023-05-08T12:15:54;152595.97;;;15.21;100.00
44926;BME280;30662;51.210;7.656;2023-05-08T12:18:22;152597.25;;;15.22;100.00
44926;BME280;30662;51.210;7.656;2023-05-08T12:21:06;152593.41;;;15.20;100.00
44926;BME280;30662;51.210;7.656;2023-05-08T12:23:32;152626.44;;;15.33;100.00
44926;BME280;30662;51.210;7.656;2023-05-08T12:25:59;152623.91;;;15.32;100.00
44926;BME280;30662;51.210;7.656;2023-05-08T12:28:25;152669.66;;;15.51;100.00
44926;BME280;30662;51.210;7.656;2023-05-08T12:30:52;152612.44;;;15.28;100.00
44926;BME280;30662;51.210;7.656;2023-05-08T12:33:19;152681.03;;;15.55;100.00
44926;BME280;30662;51.210;7.656;2023-05-08T12:35:45;152664.53;;;15.49;100.00
44926;BME280;30662;51.210;7.656;2023-05-08T12:38:11;152607.38;;;15.26;100.00
44926;BME280;30662;51.210;7.656;2023-05-08T12:40:42;152649.28;;;15.42;100.00
44926;BME280;30662;51.210;7.656;2023-05-08T12:43:09;152648.00;;;15.42;100.00
44926;BME280;30662;51.210;7.656;2023-05-08T12:45:40;152683.59;;;15.56;100.00
44926;BME280;30662;51.210;7.656;2023-05-08T12:48:09;152709.06;;;15.66;100.00
44926;BME280;30662;51.210;7.656;2023-05-08T12:50:37;152698.88;;;15.62;100.00
44926;BME280;30662;51.210;7.656;2023-05-08T12:53:05;152762.44;;;15.88;100.00
44926;BME280;30662;51.210;7.656;2023-05-08T12:55:33;152790.38;;;15.99;100.00
44926;BME280;30662;51.210;7.656;2023-05-08T13:00:49;152726.84;;;15.74;100.00
44926;BME280;30662;51.210;7.656;2023-05-08T13:03:24;152728.13;;;15.74;100.00
44926;BME280;30662;51.210;7.656;2023-05-08T13:05:52;152696.34;;;15.61;100.00
44926;BME280;30662;51.210;7.656;2023-05-08T13:08:18;152679.78;;;15.55;100.00
44926;BME280;30662;51.210;7.656;2023-05-08T13:10:53;152716.66;;;15.69;100.00
44926;BME280;30662;51.210;7.656;2023-05-08T13:13:21;152701.41;;;15.63;100.00
44926;BME280;30662;51.210;7.656;2023-05-08T13:15:49;152748.44;;;15.82;100.00
44926;BME280;30662;51.210;7.656;2023-05-08T13:18:16;152734.47;;;15.77;100.00
44926;BME280;30662;51.210;7.656;2023-05-08T13:20:42;152740.84;;;15.79;100.00
44926;BME280;30662;51.210;7.656;2023-05-08T13:23:09;152734.47;;;15.77;100.00
44926;BME280;30662;51.210;7.656;2023-05-08T13:25:39;152761.16;;;15.87;100.00
44926;BME280;30662;51.210;7.656;2023-05-08T13:28:06;152770.03;;;15.91;100.00
44926;BME280;30662;51.210;7.656;2023-05-08T13:30:33;152768.78;;;15.90;100.00